sensor_id;sensor_type;location;lat;lon;timestamp;P1;durP1;ratioP1;P2;durP2;ratioP2
45316;SDS011;31053;55.870;37.592;2023-04-03T00:02:52;11.25;;;6.00;;
45316;SDS011;31053;55.870;37.592;2023-04-03T00:05:56;14.38;;;6.32;;
45316;SDS011;31053;55.870;37.592;2023-04-03T00:09:02;12.95;;;6.85;;
45316;SDS011;31053;55.870;37.592;2023-04-03T00:12:06;15.35;;;8.20;;
45316;SDS011;31053;55.870;37.592;2023-04-03T00:15:11;17.27;;;9.38;;
45316;SDS011;31053;55.870;37.592;2023-04-03T00:18:16;16.10;;;8.85;;
45316;SDS011;31053;55.870;37.592;2023-04-03T00:21:20;18.73;;;11.38;;
45316;SDS011;31053;55.870;37.592;2023-04-03T00:24:25;13.40;;;8.05;;
45316;SDS011;31053;55.870;37.592;2023-04-03T00:27:30;20.85;;;10.82;;
45316;SDS011;31053;55.870;37.592;2023-04-03T00:30:34;10.95;;;7.10;;
45316;SDS011;31053;55.870;37.592;2023-04-03T00:33:39;15.70;;;8.95;;
45316;SDS011;31053;55.870;37.592;2023-04-03T00:36:43;17.52;;;8.75;;
45316;SDS011;31053;55.870;37.592;2023-04-03T00:39:49;12.95;;;8.32;;
45316;SDS011;31053;55.870;37.592;2023-04-03T00:42:57;10.15;;;6.85;;
45316;SDS011;31053;55.870;37.592;2023-04-03T00:46:02;11.50;;;6.97;;
45316;SDS011;31053;55.870;37.592;2023-04-03T00:49:07;9.57;;;6.00;;
45316;SDS011;31053;55.870;37.592;2023-04-03T00:52:13;12.02;;;6.88;;
45316;SDS011;31053;55.870;37.592;2023-04-03T00:55:21;10.77;;;6.60;;
45316;SDS011;31053;55.870;37.592;2023-04-03T00:58:49;9.80;;;6.75;;
45316;SDS011;31053;55.870;37.592;2023-04-03T01:01:54;8.45;;;5.47;;
45316;SDS011;31053;55.870;37.592;2023-04-03T01:05:03;9.85;;;5.68;;
45316;SDS011;31053;55.870;37.592;2023-04-03T01:08:08;9.50;;;5.32;;
45316;SDS011;31053;55.870;37.592;2023-04-03T01:11:12;11.25;;;6.28;;
45316;SDS011;31053;55.870;37.592;2023-04-03T01:14:18;9.05;;;5.68;;
45316;SDS011;31053;55.870;37.592;2023-04-03T01:20:44;11.30;;;6.78;;
45316;SDS011;31053;55.870;37.592;2023-04-03T01:27:24;12.25;;;4.95;;
45316;SDS011;31053;55.870;37.592;2023-04-03T01:30:33;12.68;;;5.38;;
45316;SDS011;31053;55.870;37.592;2023-04-03T01:33:39;12.23;;;4.80;;
45316;SDS011;31053;55.870;37.592;2023-04-03T01:36:44;8.05;;;4.53;;
45316;SDS011;31053;55.870;37.592;2023-04-03T01:39:53;14.02;;;6.10;;
45316;SDS011;31053;55.870;37.592;2023-04-03T01:42:58;8.30;;;5.30;;
45316;SDS011;31053;55.870;37.592;2023-04-03T01:46:04;8.83;;;5.17;;
45316;SDS011;31053;55.870;37.592;2023-04-03T01:49:09;8.48;;;5.25;;
45316;SDS011;31053;55.870;37.592;2023-04-03T01:52:13;7.25;;;5.05;;
45316;SDS011;31053;55.870;37.592;2023-04-03T01:55:18;16.90;;;4.85;;
45316;SDS011;31053;55.870;37.592;2023-04-03T01:58:22;9.55;;;5.68;;
45316;SDS011;31053;55.870;37.592;2023-04-03T02:01:28;10.30;;;5.15;;
45316;SDS011;31053;55.870;37.592;2023-04-03T02:04:36;9.65;;;5.88;;
45316;SDS011;31053;55.870;37.592;2023-04-03T02:07:41;8.05;;;5.18;;
45316;SDS011;31053;55.870;37.592;2023-04-03T02:10:47;8.77;;;5.30;;
45316;SDS011;31053;55.870;37.592;2023-04-03T02:13:52;9.43;;;4.13;;
45316;SDS011;31053;55.870;37.592;2023-04-03T02:16:57;9.65;;;4.93;;
45316;SDS011;31053;55.870;37.592;2023-04-03T02:20:02;16.80;;;6.18;;
45316;SDS011;31053;55.870;37.592;2023-04-03T02:23:08;7.90;;;4.03;;
45316;SDS011;31053;55.870;37.592;2023-04-03T02:26:13;10.40;;;5.28;;
45316;SDS011;31053;55.870;37.592;2023-04-03T02:29:19;6.60;;;4.32;;
45316;SDS011;31053;55.870;37.592;2023-04-03T02:32:24;6.40;;;4.20;;
45316;SDS011;31053;55.870;37.592;2023-04-03T02:35:36;8.82;;;4.82;;
45316;SDS011;31053;55.870;37.592;2023-04-03T02:38:41;8.27;;;4.47;;
45316;SDS011;31053;55.870;37.592;2023-04-03T02:41:48;9.10;;;6.22;;
45316;SDS011;31053;55.870;37.592;2023-04-03T02:44:58;8.65;;;5.35;;
45316;SDS011;31053;55.870;37.592;2023-04-03T02:48:05;7.50;;;4.55;;
45316;SDS011;31053;55.870;37.592;2023-04-03T02:51:10;14.07;;;5.93;;
45316;SDS011;31053;55.870;37.592;2023-04-03T02:54:18;11.00;;;5.28;;
45316;SDS011;31053;55.870;37.592;2023-04-03T02:57:27;15.00;;;4.75;;
45316;SDS011;31053;55.870;37.592;2023-04-03T03:00:33;8.05;;;5.07;;
45316;SDS011;31053;55.870;37.592;2023-04-03T03:03:38;13.30;;;6.05;;
45316;SDS011;31053;55.870;37.592;2023-04-03T03:06:44;12.43;;;4.60;;
45316;SDS011;31053;55.870;37.592;2023-04-03T03:09:49;8.73;;;4.80;;
45316;SDS011;31053;55.870;37.592;2023-04-03T03:12:54;6.82;;;4.32;;
45316;SDS011;31053;55.870;37.592;2023-04-03T03:15:59;18.85;;;5.88;;
45316;SDS011;31053;55.870;37.592;2023-04-03T03:19:04;8.20;;;5.43;;
45316;SDS011;31053;55.870;37.592;2023-04-03T03:22:11;11.45;;;4.90;;
45316;SDS011;31053;55.870;37.592;2023-04-03T03:25:15;9.05;;;5.38;;
45316;SDS011;31053;55.870;37.592;2023-04-03T03:28:20;8.82;;;5.57;;
45316;SDS011;31053;55.870;37.592;2023-04-03T03:31:27;9.32;;;5.53;;
45316;SDS011;31053;55.870;37.592;2023-04-03T03:34:37;11.38;;;6.55;;
45316;SDS011;31053;55.870;37.592;2023-04-03T03:37:43;11.57;;;6.00;;
45316;SDS011;31053;55.870;37.592;2023-04-03T03:40:48;9.63;;;5.93;;
45316;SDS011;31053;55.870;37.592;2023-04-03T03:43:55;11.77;;;5.38;;
45316;SDS011;31053;55.870;37.592;2023-04-03T03:47:02;8.73;;;5.13;;
45316;SDS011;31053;55.870;37.592;2023-04-03T03:50:08;10.57;;;5.47;;
45316;SDS011;31053;55.870;37.592;2023-04-03T03:53:13;16.52;;;6.90;;
45316;SDS011;31053;55.870;37.592;2023-04-03T03:56:18;14.82;;;6.32;;
45316;SDS011;31053;55.870;37.592;2023-04-03T03:59:24;12.07;;;5.70;;
45316;SDS011;31053;55.870;37.592;2023-04-03T04:02:29;13.20;;;6.90;;
45316;SDS011;31053;55.870;37.592;2023-04-03T04:05:35;10.98;;;5.85;;
45316;SDS011;31053;55.870;37.592;2023-04-03T04:08:39;13.10;;;5.97;;
45316;SDS011;31053;55.870;37.592;2023-04-03T04:14:51;9.18;;;5.57;;
45316;SDS011;31053;55.870;37.592;2023-04-03T04:17:55;9.25;;;5.85;;
45316;SDS011;31053;55.870;37.592;2023-04-03T04:21:01;12.88;;;6.80;;
45316;SDS011;31053;55.870;37.592;2023-04-03T04:24:07;23.98;;;8.88;;
45316;SDS011;31053;55.870;37.592;2023-04-03T04:27:13;14.55;;;7.70;;
45316;SDS011;31053;55.870;37.592;2023-04-03T04:30:18;12.60;;;6.72;;
45316;SDS011;31053;55.870;37.592;2023-04-03T04:33:25;14.05;;;8.00;;
45316;SDS011;31053;55.870;37.592;2023-04-03T04:36:31;14.32;;;8.05;;
45316;SDS011;31053;55.870;37.592;2023-04-03T04:39:36;16.40;;;8.95;;
45316;SDS011;31053;55.870;37.592;2023-04-03T04:42:41;22.65;;;8.98;;
45316;SDS011;31053;55.870;37.592;2023-04-03T04:45:46;19.75;;;10.13;;
45316;SDS011;31053;55.870;37.592;2023-04-03T04:48:54;19.88;;;10.82;;
45316;SDS011;31053;55.870;37.592;2023-04-03T04:55:08;22.90;;;9.13;;
45316;SDS011;31053;55.870;37.592;2023-04-03T04:58:14;16.98;;;8.95;;
45316;SDS011;31053;55.870;37.592;2023-04-03T05:01:19;18.35;;;10.02;;
45316;SDS011;31053;55.870;37.592;2023-04-03T05:04:35;16.80;;;8.23;;
45316;SDS011;31053;55.870;37.592;2023-04-03T05:07:45;14.60;;;8.60;;
45316;SDS011;31053;55.870;37.592;2023-04-03T05:10:50;19.05;;;9.27;;
45316;SDS011;31053;55.870;37.592;2023-04-03T05:13:56;18.80;;;10.13;;
45316;SDS011;31053;55.870;37.592;2023-04-03T05:17:02;22.30;;;10.13;;
45316;SDS011;31053;55.870;37.592;2023-04-03T05:20:10;18.98;;;9.63;;
45316;SDS011;31053;55.870;37.592;2023-04-03T05:23:15;18.13;;;9.73;;
45316;SDS011;31053;55.870;37.592;2023-04-03T05:26:19;22.20;;;11.05;;
45316;SDS011;31053;55.870;37.592;2023-04-03T05:29:26;19.00;;;10.13;;
45316;SDS011;31053;55.870;37.592;2023-04-03T05:32:32;38.17;;;20.27;;
45316;SDS011;31053;55.870;37.592;2023-04-03T05:35:49;25.08;;;13.48;;
45316;SDS011;31053;55.870;37.592;2023-04-03T05:38:57;22.02;;;10.63;;
45316;SDS011;31053;55.870;37.592;2023-04-03T05:42:03;19.35;;;10.43;;
45316;SDS011;31053;55.870;37.592;2023-04-03T05:45:08;18.70;;;10.20;;
45316;SDS011;31053;55.870;37.592;2023-04-03T05:48:13;17.50;;;10.32;;
45316;SDS011;31053;55.870;37.592;2023-04-03T05:51:20;21.67;;;11.43;;
45316;SDS011;31053;55.870;37.592;2023-04-03T05:54:29;23.83;;;11.98;;
45316;SDS011;31053;55.870;37.592;2023-04-03T05:57:52;16.15;;;8.85;;
45316;SDS011;31053;55.870;37.592;2023-04-03T06:00:57;12.23;;;7.68;;
45316;SDS011;31053;55.870;37.592;2023-04-03T06:04:03;15.00;;;8.85;;
45316;SDS011;31053;55.870;37.592;2023-04-03T06:07:12;21.20;;;11.30;;
45316;SDS011;31053;55.870;37.592;2023-04-03T06:10:18;27.33;;;11.02;;
45316;SDS011;31053;55.870;37.592;2023-04-03T06:13:24;20.73;;;9.25;;
45316;SDS011;31053;55.870;37.592;2023-04-03T06:16:29;18.70;;;9.48;;
45316;SDS011;31053;55.870;37.592;2023-04-03T06:19:34;19.20;;;8.18;;
45316;SDS011;31053;55.870;37.592;2023-04-03T06:22:39;27.02;;;12.30;;
45316;SDS011;31053;55.870;37.592;2023-04-03T06:25:44;16.40;;;9.27;;
45316;SDS011;31053;55.870;37.592;2023-04-03T06:28:48;16.75;;;8.95;;
45316;SDS011;31053;55.870;37.592;2023-04-03T06:31:53;16.52;;;7.47;;
45316;SDS011;31053;55.870;37.592;2023-04-03T06:34:57;13.30;;;7.60;;
45316;SDS011;31053;55.870;37.592;2023-04-03T06:38:02;17.48;;;7.82;;
45316;SDS011;31053;55.870;37.592;2023-04-03T06:41:11;15.10;;;8.23;;
45316;SDS011;31053;55.870;37.592;2023-04-03T06:44:16;14.20;;;7.53;;
45316;SDS011;31053;55.870;37.592;2023-04-03T06:47:21;13.95;;;7.38;;
45316;SDS011;31053;55.870;37.592;2023-04-03T06:50:26;22.58;;;9.68;;
45316;SDS011;31053;55.870;37.592;2023-04-03T06:53:31;22.13;;;9.63;;
45316;SDS011;31053;55.870;37.592;2023-04-03T06:56:35;15.57;;;7.88;;
45316;SDS011;31053;55.870;37.592;2023-04-03T06:59:40;18.77;;;10.32;;
45316;SDS011;31053;55.870;37.592;2023-04-03T07:02:45;18.88;;;8.50;;
45316;SDS011;31053;55.870;37.592;2023-04-03T07:05:50;17.95;;;9.60;;
45316;SDS011;31053;55.870;37.592;2023-04-03T07:08:55;17.75;;;9.38;;
45316;SDS011;31053;55.870;37.592;2023-04-03T07:11:59;20.63;;;11.23;;
45316;SDS011;31053;55.870;37.592;2023-04-03T07:15:05;17.85;;;10.45;;
45316;SDS011;31053;55.870;37.592;2023-04-03T07:18:10;23.70;;;12.45;;
45316;SDS011;31053;55.870;37.592;2023-04-03T07:21:14;24.88;;;9.57;;
45316;SDS011;31053;55.870;37.592;2023-04-03T07:24:19;14.88;;;8.75;;
45316;SDS011;31053;55.870;37.592;2023-04-03T07:27:23;12.90;;;7.93;;
45316;SDS011;31053;55.870;37.592;2023-04-03T07:30:29;16.40;;;9.95;;
45316;SDS011;31053;55.870;37.592;2023-04-03T07:33:34;16.17;;;9.00;;
45316;SDS011;31053;55.870;37.592;2023-04-03T07:36:39;17.75;;;8.23;;
45316;SDS011;31053;55.870;37.592;2023-04-03T07:39:45;11.50;;;7.13;;
45316;SDS011;31053;55.870;37.592;2023-04-03T07:42:49;35.72;;;10.93;;
45316;SDS011;31053;55.870;37.592;2023-04-03T07:45:56;25.42;;;9.45;;
45316;SDS011;31053;55.870;37.592;2023-04-03T07:49:01;32.55;;;12.82;;
45316;SDS011;31053;55.870;37.592;2023-04-03T07:52:06;43.25;;;12.60;;
45316;SDS011;31053;55.870;37.592;2023-04-03T07:55:13;17.25;;;8.30;;
45316;SDS011;31053;55.870;37.592;2023-04-03T07:58:18;18.88;;;8.40;;
45316;SDS011;31053;55.870;37.592;2023-04-03T08:01:22;31.02;;;9.13;;
45316;SDS011;31053;55.870;37.592;2023-04-03T08:04:30;18.42;;;7.72;;
45316;SDS011;31053;55.870;37.592;2023-04-03T08:07:36;15.75;;;7.47;;
45316;SDS011;31053;55.870;37.592;2023-04-03T08:13:47;23.80;;;10.02;;
45316;SDS011;31053;55.870;37.592;2023-04-03T08:16:51;16.25;;;7.40;;
45316;SDS011;31053;55.870;37.592;2023-04-03T08:19:56;14.82;;;7.70;;
45316;SDS011;31053;55.870;37.592;2023-04-03T08:23:00;12.13;;;8.43;;
45316;SDS011;31053;55.870;37.592;2023-04-03T08:26:06;18.58;;;8.88;;
45316;SDS011;31053;55.870;37.592;2023-04-03T08:29:14;20.30;;;6.97;;
45316;SDS011;31053;55.870;37.592;2023-04-03T08:32:18;16.20;;;6.95;;
45316;SDS011;31053;55.870;37.592;2023-04-03T08:35:23;23.42;;;9.98;;
45316;SDS011;31053;55.870;37.592;2023-04-03T08:38:28;27.48;;;9.50;;
45316;SDS011;31053;55.870;37.592;2023-04-03T08:41:37;37.35;;;10.80;;
45316;SDS011;31053;55.870;37.592;2023-04-03T08:44:47;17.77;;;8.70;;
45316;SDS011;31053;55.870;37.592;2023-04-03T08:48:07;17.85;;;8.32;;
45316;SDS011;31053;55.870;37.592;2023-04-03T08:51:20;22.65;;;7.55;;
45316;SDS011;31053;55.870;37.592;2023-04-03T08:58:12;19.27;;;7.95;;
45316;SDS011;31053;55.870;37.592;2023-04-03T09:01:41;26.77;;;11.40;;
45316;SDS011;31053;55.870;37.592;2023-04-03T09:04:45;18.90;;;8.02;;
45316;SDS011;31053;55.870;37.592;2023-04-03T09:08:00;12.88;;;6.70;;
45316;SDS011;31053;55.870;37.592;2023-04-03T09:11:25;11.68;;;5.68;;
45316;SDS011;31053;55.870;37.592;2023-04-03T09:14:45;13.82;;;6.10;;
45316;SDS011;31053;55.870;37.592;2023-04-03T09:18:10;19.10;;;6.72;;
45316;SDS011;31053;55.870;37.592;2023-04-03T09:21:27;14.10;;;6.73;;
45316;SDS011;31053;55.870;37.592;2023-04-03T09:24:35;20.10;;;6.35;;
45316;SDS011;31053;55.870;37.592;2023-04-03T09:27:41;16.70;;;8.27;;
45316;SDS011;31053;55.870;37.592;2023-04-03T09:30:46;18.77;;;9.50;;
45316;SDS011;31053;55.870;37.592;2023-04-03T09:33:52;22.60;;;9.65;;
45316;SDS011;31053;55.870;37.592;2023-04-03T09:37:00;18.05;;;8.05;;
45316;SDS011;31053;55.870;37.592;2023-04-03T09:40:27;21.98;;;7.60;;
45316;SDS011;31053;55.870;37.592;2023-04-03T09:43:51;47.53;;;11.07;;
45316;SDS011;31053;55.870;37.592;2023-04-03T09:46:57;28.73;;;8.57;;
45316;SDS011;31053;55.870;37.592;2023-04-03T09:53:36;22.92;;;9.10;;
45316;SDS011;31053;55.870;37.592;2023-04-03T09:56:50;20.40;;;6.55;;
45316;SDS011;31053;55.870;37.592;2023-04-03T10:00:01;10.80;;;5.72;;
45316;SDS011;31053;55.870;37.592;2023-04-03T10:03:26;13.43;;;5.65;;
45316;SDS011;31053;55.870;37.592;2023-04-03T10:07:35;17.42;;;6.32;;
45316;SDS011;31053;55.870;37.592;2023-04-03T10:10:42;13.80;;;5.90;;
45316;SDS011;31053;55.870;37.592;2023-04-03T10:13:53;16.92;;;7.25;;
45316;SDS011;31053;55.870;37.592;2023-04-03T10:20:43;11.93;;;6.13;;
45316;SDS011;31053;55.870;37.592;2023-04-03T10:27:28;10.27;;;6.65;;
45316;SDS011;31053;55.870;37.592;2023-04-03T10:37:23;20.80;;;6.80;;
45316;SDS011;31053;55.870;37.592;2023-04-03T10:40:35;23.15;;;8.13;;
45316;SDS011;31053;55.870;37.592;2023-04-03T10:44:09;14.77;;;6.45;;
45316;SDS011;31053;55.870;37.592;2023-04-03T10:54:27;17.77;;;7.97;;
45316;SDS011;31053;55.870;37.592;2023-04-03T11:00:16;18.35;;;7.90;;
45316;SDS011;31053;55.870;37.592;2023-04-03T11:03:36;14.25;;;6.07;;
45316;SDS011;31053;55.870;37.592;2023-04-03T11:07:01;11.10;;;5.30;;
45316;SDS011;31053;55.870;37.592;2023-04-03T11:10:22;20.98;;;8.00;;
45316;SDS011;31053;55.870;37.592;2023-04-03T11:13:35;25.25;;;8.23;;
45316;SDS011;31053;55.870;37.592;2023-04-03T11:16:45;10.32;;;6.22;;
45316;SDS011;31053;55.870;37.592;2023-04-03T11:23:08;13.80;;;6.00;;
45316;SDS011;31053;55.870;37.592;2023-04-03T11:26:31;14.35;;;6.40;;
45316;SDS011;31053;55.870;37.592;2023-04-03T11:29:41;22.10;;;9.02;;
45316;SDS011;31053;55.870;37.592;2023-04-03T11:36:12;23.13;;;7.53;;
45316;SDS011;31053;55.870;37.592;2023-04-03T11:39:29;13.02;;;6.93;;
45316;SDS011;31053;55.870;37.592;2023-04-03T11:42:37;11.93;;;5.50;;
45316;SDS011;31053;55.870;37.592;2023-04-03T11:45:49;19.25;;;7.90;;
45316;SDS011;31053;55.870;37.592;2023-04-03T11:48:59;19.13;;;8.00;;
45316;SDS011;31053;55.870;37.592;2023-04-03T11:52:07;12.70;;;6.18;;
45316;SDS011;31053;55.870;37.592;2023-04-03T12:05:25;18.67;;;6.20;;
45316;SDS011;31053;55.870;37.592;2023-04-03T12:11:37;13.95;;;5.85;;
45316;SDS011;31053;55.870;37.592;2023-04-03T12:14:41;18.77;;;8.25;;
45316;SDS011;31053;55.870;37.592;2023-04-03T12:17:47;14.43;;;5.82;;
45316;SDS011;31053;55.870;37.592;2023-04-03T12:20:53;11.90;;;6.18;;
45316;SDS011;31053;55.870;37.592;2023-04-03T12:24:01;21.75;;;6.78;;
45316;SDS011;31053;55.870;37.592;2023-04-03T12:27:15;18.58;;;5.68;;
45316;SDS011;31053;55.870;37.592;2023-04-03T12:30:37;17.60;;;7.03;;
45316;SDS011;31053;55.870;37.592;2023-04-03T12:47:49;12.40;;;5.03;;
45316;SDS011;31053;55.870;37.592;2023-04-03T12:50:58;13.98;;;6.03;;
45316;SDS011;31053;55.870;37.592;2023-04-03T12:54:14;20.40;;;7.45;;
45316;SDS011;31053;55.870;37.592;2023-04-03T12:57:25;17.27;;;7.25;;
45316;SDS011;31053;55.870;37.592;2023-04-03T13:00:32;27.10;;;8.73;;
45316;SDS011;31053;55.870;37.592;2023-04-03T13:03:40;27.33;;;8.23;;
45316;SDS011;31053;55.870;37.592;2023-04-03T13:06:48;19.98;;;7.28;;
45316;SDS011;31053;55.870;37.592;2023-04-03T13:09:58;28.27;;;8.50;;
45316;SDS011;31053;55.870;37.592;2023-04-03T13:13:08;23.65;;;9.25;;
45316;SDS011;31053;55.870;37.592;2023-04-03T13:16:16;23.95;;;8.45;;
45316;SDS011;31053;55.870;37.592;2023-04-03T13:19:22;26.25;;;15.27;;
45316;SDS011;31053;55.870;37.592;2023-04-03T13:22:34;21.45;;;9.43;;
45316;SDS011;31053;55.870;37.592;2023-04-03T13:25:43;21.77;;;8.65;;
45316;SDS011;31053;55.870;37.592;2023-04-03T13:28:49;13.65;;;6.70;;
45316;SDS011;31053;55.870;37.592;2023-04-03T13:31:54;11.35;;;6.70;;
45316;SDS011;31053;55.870;37.592;2023-04-03T13:34:59;10.23;;;5.82;;
45316;SDS011;31053;55.870;37.592;2023-04-03T13:38:27;15.70;;;8.18;;
45316;SDS011;31053;55.870;37.592;2023-04-03T13:41:37;15.80;;;7.75;;
45316;SDS011;31053;55.870;37.592;2023-04-03T13:44:43;14.45;;;6.03;;
45316;SDS011;31053;55.870;37.592;2023-04-03T13:47:49;20.15;;;6.82;;
45316;SDS011;31053;55.870;37.592;2023-04-03T13:51:17;15.20;;;6.63;;
45316;SDS011;31053;55.870;37.592;2023-04-03T13:54:34;15.60;;;5.95;;
45316;SDS011;31053;55.870;37.592;2023-04-03T13:57:50;11.00;;;5.15;;
45316;SDS011;31053;55.870;37.592;2023-04-03T14:04:26;8.85;;;4.60;;
45316;SDS011;31053;55.870;37.592;2023-04-03T14:09:27;12.13;;;5.05;;
45316;SDS011;31053;55.870;37.592;2023-04-03T14:13:52;15.35;;;6.18;;
45316;SDS011;31053;55.870;37.592;2023-04-03T14:17:01;16.63;;;6.57;;
45316;SDS011;31053;55.870;37.592;2023-04-03T14:20:10;12.23;;;7.47;;
45316;SDS011;31053;55.870;37.592;2023-04-03T14:23:28;11.27;;;5.32;;
45316;SDS011;31053;55.870;37.592;2023-04-03T14:26:33;16.10;;;6.70;;
45316;SDS011;31053;55.870;37.592;2023-04-03T14:29:37;14.32;;;6.45;;
45316;SDS011;31053;55.870;37.592;2023-04-03T14:32:45;11.70;;;4.85;;
45316;SDS011;31053;55.870;37.592;2023-04-03T14:35:51;11.85;;;5.78;;
45316;SDS011;31053;55.870;37.592;2023-04-03T14:38:56;12.85;;;6.55;;
45316;SDS011;31053;55.870;37.592;2023-04-03T14:42:01;11.23;;;5.05;;
45316;SDS011;31053;55.870;37.592;2023-04-03T14:45:07;14.10;;;6.70;;
45316;SDS011;31053;55.870;37.592;2023-04-03T14:48:18;14.75;;;5.63;;
45316;SDS011;31053;55.870;37.592;2023-04-03T14:51:25;12.30;;;4.78;;
45316;SDS011;31053;55.870;37.592;2023-04-03T14:54:30;13.02;;;5.47;;
45316;SDS011;31053;55.870;37.592;2023-04-03T15:03:22;10.07;;;5.68;;
45316;SDS011;31053;55.870;37.592;2023-04-03T15:06:35;8.93;;;5.10;;
45316;SDS011;31053;55.870;37.592;2023-04-03T15:09:39;8.18;;;4.32;;
45316;SDS011;31053;55.870;37.592;2023-04-03T15:12:44;8.57;;;4.30;;
45316;SDS011;31053;55.870;37.592;2023-04-03T15:15:49;10.88;;;5.05;;
45316;SDS011;31053;55.870;37.592;2023-04-03T15:18:56;6.93;;;4.40;;
45316;SDS011;31053;55.870;37.592;2023-04-03T15:22:00;11.23;;;4.03;;
45316;SDS011;31053;55.870;37.592;2023-04-03T15:25:05;10.55;;;5.38;;
45316;SDS011;31053;55.870;37.592;2023-04-03T15:28:22;7.43;;;4.85;;
45316;SDS011;31053;55.870;37.592;2023-04-03T15:31:32;8.20;;;4.90;;
45316;SDS011;31053;55.870;37.592;2023-04-03T15:34:37;11.65;;;5.95;;
45316;SDS011;31053;55.870;37.592;2023-04-03T15:37:42;12.45;;;5.10;;
45316;SDS011;31053;55.870;37.592;2023-04-03T15:40:47;7.88;;;5.38;;
45316;SDS011;31053;55.870;37.592;2023-04-03T15:43:51;10.32;;;5.90;;
45316;SDS011;31053;55.870;37.592;2023-04-03T15:46:56;20.88;;;6.85;;
45316;SDS011;31053;55.870;37.592;2023-04-03T15:50:02;8.23;;;5.05;;
45316;SDS011;31053;55.870;37.592;2023-04-03T15:53:11;11.82;;;7.20;;
45316;SDS011;31053;55.870;37.592;2023-04-03T15:56:16;25.27;;;10.07;;
45316;SDS011;31053;55.870;37.592;2023-04-03T15:59:28;18.15;;;8.75;;
45316;SDS011;31053;55.870;37.592;2023-04-03T16:05:39;24.13;;;10.07;;
45316;SDS011;31053;55.870;37.592;2023-04-03T16:08:45;26.80;;;10.18;;
45316;SDS011;31053;55.870;37.592;2023-04-03T16:11:50;27.77;;;13.20;;
45316;SDS011;31053;55.870;37.592;2023-04-03T16:14:55;25.50;;;11.23;;
45316;SDS011;31053;55.870;37.592;2023-04-03T16:18:00;32.38;;;13.52;;
45316;SDS011;31053;55.870;37.592;2023-04-03T16:21:06;23.65;;;13.15;;
45316;SDS011;31053;55.870;37.592;2023-04-03T16:24:11;24.20;;;12.77;;
45316;SDS011;31053;55.870;37.592;2023-04-03T16:27:16;24.73;;;9.93;;
45316;SDS011;31053;55.870;37.592;2023-04-03T16:30:21;26.67;;;10.70;;
45316;SDS011;31053;55.870;37.592;2023-04-03T16:33:26;25.30;;;12.82;;
45316;SDS011;31053;55.870;37.592;2023-04-03T16:36:37;16.85;;;9.43;;
45316;SDS011;31053;55.870;37.592;2023-04-03T16:39:41;24.63;;;14.50;;
45316;SDS011;31053;55.870;37.592;2023-04-03T16:42:46;25.67;;;13.45;;
45316;SDS011;31053;55.870;37.592;2023-04-03T16:45:51;30.40;;;13.35;;
45316;SDS011;31053;55.870;37.592;2023-04-03T16:48:57;21.27;;;11.57;;
45316;SDS011;31053;55.870;37.592;2023-04-03T16:52:03;22.23;;;13.13;;
45316;SDS011;31053;55.870;37.592;2023-04-03T16:55:08;29.27;;;13.45;;
45316;SDS011;31053;55.870;37.592;2023-04-03T16:58:13;28.63;;;15.18;;
45316;SDS011;31053;55.870;37.592;2023-04-03T17:01:19;24.92;;;12.50;;
45316;SDS011;31053;55.870;37.592;2023-04-03T17:04:24;24.38;;;13.35;;
45316;SDS011;31053;55.870;37.592;2023-04-03T17:07:29;22.45;;;12.73;;
45316;SDS011;31053;55.870;37.592;2023-04-03T17:10:34;21.23;;;11.90;;
45316;SDS011;31053;55.870;37.592;2023-04-03T17:13:39;15.75;;;8.52;;
45316;SDS011;31053;55.870;37.592;2023-04-03T17:16:44;20.98;;;11.23;;
45316;SDS011;31053;55.870;37.592;2023-04-03T17:19:51;22.23;;;11.25;;
45316;SDS011;31053;55.870;37.592;2023-04-03T17:22:57;25.55;;;11.15;;
45316;SDS011;31053;55.870;37.592;2023-04-03T17:26:02;20.67;;;11.88;;
45316;SDS011;31053;55.870;37.592;2023-04-03T17:29:08;22.88;;;10.57;;
45316;SDS011;31053;55.870;37.592;2023-04-03T17:32:12;19.15;;;12.45;;
45316;SDS011;31053;55.870;37.592;2023-04-03T17:35:17;26.83;;;12.48;;
45316;SDS011;31053;55.870;37.592;2023-04-03T17:38:23;20.15;;;10.90;;
45316;SDS011;31053;55.870;37.592;2023-04-03T17:41:30;17.70;;;10.25;;
45316;SDS011;31053;55.870;37.592;2023-04-03T17:44:35;23.10;;;11.90;;
45316;SDS011;31053;55.870;37.592;2023-04-03T17:47:39;20.80;;;10.45;;
45316;SDS011;31053;55.870;37.592;2023-04-03T17:50:44;28.52;;;12.70;;
45316;SDS011;31053;55.870;37.592;2023-04-03T17:53:49;19.98;;;10.80;;
45316;SDS011;31053;55.870;37.592;2023-04-03T17:56:55;17.77;;;11.25;;
45316;SDS011;31053;55.870;37.592;2023-04-03T17:59:59;25.77;;;11.83;;
45316;SDS011;31053;55.870;37.592;2023-04-03T18:03:04;19.35;;;10.30;;
45316;SDS011;31053;55.870;37.592;2023-04-03T18:06:13;15.40;;;9.32;;
45316;SDS011;31053;55.870;37.592;2023-04-03T18:09:21;18.88;;;9.48;;
45316;SDS011;31053;55.870;37.592;2023-04-03T18:12:36;16.30;;;10.85;;
45316;SDS011;31053;55.870;37.592;2023-04-03T18:15:41;19.38;;;11.00;;
45316;SDS011;31053;55.870;37.592;2023-04-03T18:18:48;25.05;;;12.60;;
45316;SDS011;31053;55.870;37.592;2023-04-03T18:21:54;17.35;;;10.05;;
45316;SDS011;31053;55.870;37.592;2023-04-03T18:25:01;13.90;;;7.95;;
45316;SDS011;31053;55.870;37.592;2023-04-03T18:28:09;19.83;;;10.82;;
45316;SDS011;31053;55.870;37.592;2023-04-03T18:31:19;32.80;;;16.02;;
45316;SDS011;31053;55.870;37.592;2023-04-03T18:34:28;17.13;;;9.93;;
45316;SDS011;31053;55.870;37.592;2023-04-03T18:37:38;22.50;;;12.32;;
45316;SDS011;31053;55.870;37.592;2023-04-03T18:40:45;18.92;;;11.82;;
45316;SDS011;31053;55.870;37.592;2023-04-03T18:43:52;17.50;;;10.13;;
45316;SDS011;31053;55.870;37.592;2023-04-03T18:47:02;14.57;;;9.02;;
45316;SDS011;31053;55.870;37.592;2023-04-03T18:50:09;16.73;;;7.93;;
45316;SDS011;31053;55.870;37.592;2023-04-03T18:53:15;13.05;;;7.68;;
45316;SDS011;31053;55.870;37.592;2023-04-03T18:56:20;10.50;;;7.03;;
45316;SDS011;31053;55.870;37.592;2023-04-03T18:59:26;15.00;;;8.13;;
45316;SDS011;31053;55.870;37.592;2023-04-03T19:02:30;9.60;;;5.97;;
45316;SDS011;31053;55.870;37.592;2023-04-03T19:05:35;14.73;;;8.45;;
45316;SDS011;31053;55.870;37.592;2023-04-03T19:08:40;15.65;;;7.63;;
45316;SDS011;31053;55.870;37.592;2023-04-03T19:11:45;10.30;;;6.93;;
45316;SDS011;31053;55.870;37.592;2023-04-03T19:14:50;12.52;;;7.22;;
45316;SDS011;31053;55.870;37.592;2023-04-03T19:21:03;18.05;;;9.43;;
45316;SDS011;31053;55.870;37.592;2023-04-03T19:24:14;10.07;;;5.65;;
45316;SDS011;31053;55.870;37.592;2023-04-03T19:27:26;23.08;;;13.30;;
45316;SDS011;31053;55.870;37.592;2023-04-03T19:30:39;18.48;;;10.50;;
45316;SDS011;31053;55.870;37.592;2023-04-03T19:33:47;16.25;;;9.27;;
45316;SDS011;31053;55.870;37.592;2023-04-03T19:36:53;12.00;;;6.72;;
45316;SDS011;31053;55.870;37.592;2023-04-03T19:40:02;20.23;;;9.80;;
45316;SDS011;31053;55.870;37.592;2023-04-03T19:43:13;9.93;;;6.75;;
45316;SDS011;31053;55.870;37.592;2023-04-03T19:46:27;10.80;;;6.80;;
45316;SDS011;31053;55.870;37.592;2023-04-03T19:50:05;9.63;;;6.07;;
45316;SDS011;31053;55.870;37.592;2023-04-03T19:53:21;9.13;;;5.97;;
45316;SDS011;31053;55.870;37.592;2023-04-03T19:56:31;15.98;;;6.60;;
45316;SDS011;31053;55.870;37.592;2023-04-03T19:59:37;12.07;;;7.05;;